ENMS

Details ICAO ENMS (MJF)
Name KJAERSTAD
Region Norway
Timezone Europe/Oslo (UTC+2.0)
Plans Departing 7
Arriving 10
Stats Elevation 237 ft / 72 m (AMSL)
Location 65.783997° 13.214914°
Runways 1
Magnetic Variation 4.966° E
Sunrise 2018-05-24 00:58:47 UTC / 2018-05-24 02:58:47 Local
Sunset 2018-05-24 21:12:02 UTC / 2018-05-24 23:12:02 Local
Advertisement - Login to hide

Runways

ID Width Length Bearing (true) Bearing (mag) Surface Threshold Offset Overrun Length
16 98 ft / 30 m 2,876 ft / 877 m 160.56° 155.59° Asphalt 197 ft / 60 m 0 ft / 0 m
34 98 ft / 30 m 2,876 ft / 877 m 340.57° 335.60° Asphalt 197 ft / 60 m 0 ft / 0 m

Approach Navaids

Runway Type Ident Frequency Range Bearing (true) Bearing (mag) Slope Elevation
34 Localiser MS 110.70 MHz 18 nm / 33 km 3.98° 359.01° - 255 ft / 78 m (AMSL)

Map

Weather


0- 5 10 15 20 25 30 35+ Temperature / ° C

Clouds and Precipitation
Forecast for 2018-05-24 12:00 UTC. Updated an hour ago

Ground ~20,000 ft ~40,000 ft Winds

METAR

ENMS 241220Z 09004KT 050V150 CAVOK 21/M02 Q1026 RMK WIND 412FT VRB03KT

TAF

Not found

Frequencies

Tower 123.40 MHz MOSJOEN INFO
Warning: Do not use this data for real-world aviation or navigation. No guarantee of current accuracy is given.